createdAt,value
2022-09-28T00:01:18.900Z,6.40
2022-09-28T00:03:49.067Z,4.65
2022-09-28T00:06:19.814Z,7.67
2022-09-28T00:08:50.221Z,4.55
2022-09-28T00:11:20.792Z,5.53
2022-09-28T00:13:51.781Z,3.95
2022-09-28T00:16:22.349Z,4.22
2022-09-28T00:18:53.091Z,6.90
2022-09-28T00:21:23.515Z,3.62
2022-09-28T00:24:11.510Z,3.42
2022-09-28T00:26:52.383Z,3.70
2022-09-28T00:29:29.268Z,3.17
2022-09-28T00:32:03.098Z,3.63
2022-09-28T00:34:40.743Z,5.72
2022-09-28T00:37:09.470Z,2.87
2022-09-28T00:39:38.533Z,3.20
2022-09-28T00:42:13.596Z,2.90
2022-09-28T00:44:48.188Z,3.93
2022-09-28T00:47:38.121Z,5.25
2022-09-28T00:50:05.743Z,4.65
2022-09-28T00:52:40.821Z,4.87
2022-09-28T00:55:16.632Z,3.45
2022-09-28T00:57:49.451Z,4.60
2022-09-28T01:00:17.640Z,6.15
2022-09-28T01:02:46.093Z,5.78
2022-09-28T01:05:15.071Z,4.62
2022-09-28T01:07:46.560Z,3.72
2022-09-28T01:10:15.631Z,3.00
2022-09-28T01:12:43.751Z,4.07
2022-09-28T01:15:11.707Z,3.95
2022-09-28T01:17:55.962Z,4.35
2022-09-28T01:20:58.561Z,3.40
2022-09-28T01:23:50.530Z,4.37
2022-09-28T01:26:43.595Z,8.07
2022-09-28T01:29:34.089Z,5.25
2022-09-28T01:32:46.588Z,4.00
2022-09-28T01:35:20.851Z,8.20
2022-09-28T01:38:05.862Z,3.87
2022-09-28T01:40:35.225Z,5.43
2022-09-28T01:43:10.955Z,3.62
2022-09-28T01:45:42.557Z,6.12
2022-09-28T01:48:13.296Z,3.83
2022-09-28T01:50:44.179Z,3.17
2022-09-28T01:53:19.316Z,4.10
2022-09-28T01:56:02.167Z,4.82
2022-09-28T01:58:33.142Z,3.53
2022-09-28T02:01:17.041Z,5.07
2022-09-28T02:03:51.339Z,2.97
2022-09-28T02:06:26.251Z,5.28
2022-09-28T02:08:59.419Z,4.45
2022-09-28T02:11:28.212Z,4.12
2022-09-28T02:14:04.386Z,3.25
2022-09-28T02:16:32.161Z,4.30
2022-09-28T02:19:00.346Z,6.25
2022-09-28T02:21:43.076Z,4.55
2022-09-28T02:24:21.261Z,3.70
2022-09-28T02:26:50.819Z,6.18
2022-09-28T02:29:18.792Z,4.60
2022-09-28T02:31:46.724Z,7.15
2022-09-28T02:34:14.365Z,3.42
2022-09-28T02:36:42.244Z,4.32
2022-09-28T02:39:19.712Z,4.05
2022-09-28T02:42:01.639Z,3.73
2022-09-28T02:44:54.551Z,3.65
2022-09-28T02:47:31.271Z,3.62
2022-09-28T02:50:18.140Z,4.57
2022-09-28T02:52:55.877Z,3.60
2022-09-28T02:56:04.905Z,5.10
2022-09-28T02:58:50.925Z,6.37
2022-09-28T03:01:18.688Z,3.67
2022-09-28T03:03:53.223Z,3.33
2022-09-28T03:06:59.691Z,2.95
2022-09-28T03:09:53.370Z,3.83
2022-09-28T03:12:24.475Z,5.30
2022-09-28T03:15:10.212Z,7.07
2022-09-28T03:17:38.440Z,5.47
2022-09-28T03:20:06.728Z,4.35
2022-09-28T03:22:34.449Z,4.80
2022-09-28T03:25:02.190Z,3.70
2022-09-28T03:27:29.675Z,4.30
2022-09-28T03:29:57.174Z,5.95
2022-09-28T03:32:25.281Z,5.72
2022-09-28T03:34:52.681Z,4.37
2022-09-28T03:37:20.384Z,5.15
2022-09-28T03:39:48.259Z,3.67
2022-09-28T03:42:15.735Z,2.95
2022-09-28T03:44:43.868Z,2.70
2022-09-28T03:47:12.147Z,2.63
2022-09-28T03:49:39.775Z,3.85
2022-09-28T03:52:10.060Z,4.35
2022-09-28T03:54:38.651Z,3.62
2022-09-28T03:57:06.779Z,6.00
2022-09-28T03:59:37.468Z,4.47
2022-09-28T04:02:05.628Z,3.42
2022-09-28T04:04:33.451Z,3.42
2022-09-28T04:07:00.912Z,3.92
2022-09-28T04:09:28.399Z,5.40
2022-09-28T04:12:03.843Z,4.27
2022-09-28T04:14:32.865Z,3.78
2022-09-28T04:17:00.604Z,3.58
2022-09-28T04:19:28.228Z,3.60
2022-09-28T04:21:56.096Z,7.07
2022-09-28T04:24:23.941Z,2.87
2022-09-28T04:26:51.892Z,2.75
2022-09-28T04:29:19.996Z,4.12
2022-09-28T04:31:50.602Z,3.92
2022-09-28T04:34:20.775Z,4.70
2022-09-28T04:36:50.144Z,4.83
2022-09-28T04:39:19.536Z,3.35
2022-09-28T04:41:48.492Z,4.20
2022-09-28T04:44:16.606Z,4.35
2022-09-28T04:46:45.865Z,5.20
2022-09-28T04:49:14.887Z,3.97
2022-09-28T04:51:43.182Z,3.12
2022-09-28T04:54:10.723Z,3.55
2022-09-28T04:56:38.122Z,2.62
2022-09-28T04:59:06.183Z,9.52
2022-09-28T05:01:34.338Z,4.77
2022-09-28T05:04:06.009Z,4.10
2022-09-28T05:06:33.728Z,6.65
2022-09-28T05:09:01.768Z,4.65
2022-09-28T05:11:29.218Z,4.97
2022-09-28T05:13:57.562Z,4.47
2022-09-28T05:16:26.327Z,5.00
2022-09-28T05:18:55.954Z,8.70
2022-09-28T05:21:25.487Z,7.80
2022-09-28T05:23:56.107Z,4.47
2022-09-28T05:26:24.368Z,5.50
2022-09-28T05:28:51.816Z,7.97
2022-09-28T05:31:21.886Z,3.70
2022-09-28T05:33:50.687Z,3.70
2022-09-28T05:36:18.125Z,4.47
2022-09-28T05:38:46.246Z,9.80
2022-09-28T05:41:14.348Z,5.87
2022-09-28T05:43:41.892Z,4.28
2022-09-28T05:46:09.391Z,5.37
2022-09-28T05:48:37.944Z,4.30
2022-09-28T05:51:05.492Z,6.07
2022-09-28T05:53:32.953Z,3.50
2022-09-28T05:56:00.938Z,4.40
2022-09-28T05:58:30.506Z,5.85
2022-09-28T06:00:58.765Z,5.75
2022-09-28T06:03:27.177Z,4.37
2022-09-28T06:05:54.849Z,5.68
2022-09-28T06:08:22.590Z,5.07
2022-09-28T06:10:51.346Z,5.78
2022-09-28T06:13:18.820Z,5.30
2022-09-28T06:15:46.449Z,3.93
2022-09-28T06:18:15.043Z,4.03
2022-09-28T06:20:43.662Z,7.82
2022-09-28T06:23:12.794Z,4.37
2022-09-28T06:25:40.893Z,7.97
2022-09-28T06:28:15.295Z,6.37
2022-09-28T06:30:44.093Z,3.92
2022-09-28T06:33:13.832Z,5.78
2022-09-28T06:35:42.316Z,5.90
2022-09-28T06:38:10.540Z,4.47
2022-09-28T06:40:38.281Z,4.80
2022-09-28T06:43:10.653Z,4.30
2022-09-28T06:45:43.677Z,4.50
2022-09-28T06:48:11.711Z,4.12
2022-09-28T06:50:42.625Z,3.75
2022-09-28T06:53:13.883Z,3.90
2022-09-28T06:55:43.549Z,3.35
2022-09-28T06:58:13.523Z,3.22
2022-09-28T07:00:41.753Z,6.43
2022-09-28T07:03:13.707Z,3.55
2022-09-28T07:05:48.282Z,3.80
2022-09-28T07:08:17.375Z,2.00
2022-09-28T07:10:48.832Z,4.47
2022-09-28T07:13:45.508Z,3.03
2022-09-28T07:16:05.494Z,2.58
2022-09-28T07:18:33.018Z,1.73
2022-09-28T07:21:02.810Z,2.33
2022-09-28T07:23:32.392Z,2.05
2022-09-28T07:26:08.082Z,1.60
2022-09-28T07:28:38.197Z,1.92
2022-09-28T07:31:06.932Z,1.40
2022-09-28T07:33:34.680Z,4.45
2022-09-28T07:36:06.581Z,3.30
2022-09-28T07:38:34.615Z,2.12
2022-09-28T07:41:16.928Z,1.73
2022-09-28T07:43:45.552Z,1.90
2022-09-28T07:46:13.256Z,1.55
2022-09-28T07:48:42.840Z,2.12
2022-09-28T07:51:10.759Z,3.05
2022-09-28T07:53:38.519Z,1.65
2022-09-28T07:56:09.009Z,1.63
2022-09-28T07:58:39.040Z,3.40
2022-09-28T08:01:15.583Z,1.23
2022-09-28T08:03:45.476Z,2.58
2022-09-28T08:06:17.101Z,3.72
2022-09-28T08:08:45.153Z,1.87
2022-09-28T08:11:16.689Z,2.33
2022-09-28T08:13:46.501Z,1.40
2022-09-28T08:16:14.651Z,2.58
2022-09-28T08:18:44.096Z,5.85
2022-09-28T08:21:30.720Z,2.27
2022-09-28T08:23:58.816Z,0.93
2022-09-28T08:26:26.535Z,1.50
2022-09-28T08:28:53.997Z,2.08
2022-09-28T08:31:22.772Z,1.50
2022-09-28T08:33:53.751Z,2.60
2022-09-28T08:36:27.656Z,1.25
2022-09-28T08:38:56.219Z,0.82
2022-09-28T08:41:51.551Z,2.83
2022-09-28T08:44:24.546Z,2.03
2022-09-28T08:47:30.176Z,1.70
2022-09-28T08:50:03.605Z,1.15
2022-09-28T08:52:38.396Z,1.27
2022-09-28T08:55:06.512Z,2.03
2022-09-28T08:57:53.060Z,2.05
2022-09-28T09:00:33.281Z,3.70
2022-09-28T09:03:11.972Z,1.62
2022-09-28T09:05:56.284Z,1.87
2022-09-28T09:08:37.325Z,1.80
2022-09-28T09:11:38.380Z,1.25
2022-09-28T09:14:27.767Z,2.27
2022-09-28T09:17:13.827Z,2.65
2022-09-28T09:20:03.543Z,0.98
2022-09-28T09:22:42.033Z,1.20
2022-09-28T09:25:18.388Z,1.58
2022-09-28T09:27:59.244Z,1.90
2022-09-28T09:30:34.952Z,1.87
2022-09-28T09:33:24.276Z,2.12
2022-09-28T09:36:16.820Z,3.78
2022-09-28T09:38:48.952Z,1.77
2022-09-28T09:41:47.149Z,1.40
2022-09-28T09:44:35.101Z,3.25
2022-09-28T09:47:09.762Z,2.10
2022-09-28T09:49:44.001Z,3.12
2022-09-28T09:52:29.394Z,1.60
2022-09-28T09:55:40.707Z,1.87
2022-09-28T09:58:12.228Z,1.50
2022-09-28T10:00:45.739Z,0.73
2022-09-28T10:03:31.384Z,1.83
2022-09-28T10:06:11.871Z,1.60
2022-09-28T10:09:12.554Z,1.10
2022-09-28T10:11:44.928Z,1.55
2022-09-28T10:14:21.493Z,2.97
2022-09-28T10:16:52.583Z,1.67
2022-09-28T10:19:30.723Z,1.83
2022-09-28T10:22:05.847Z,0.70
2022-09-28T10:24:45.294Z,1.20
2022-09-28T10:27:20.067Z,1.87
2022-09-28T10:30:13.926Z,3.08
2022-09-28T10:32:46.662Z,0.88
2022-09-28T10:35:22.784Z,3.30
2022-09-28T10:38:01.805Z,1.30
2022-09-28T10:40:48.546Z,0.80
2022-09-28T10:43:21.863Z,0.90
2022-09-28T10:46:01.856Z,1.45
2022-09-28T10:48:32.586Z,2.50
2022-09-28T10:51:04.756Z,2.00
2022-09-28T10:53:33.563Z,0.50
2022-09-28T10:56:22.793Z,1.08
2022-09-28T10:58:52.149Z,0.88
2022-09-28T11:01:26.157Z,1.00
2022-09-28T11:04:03.593Z,0.73
2022-09-28T11:06:36.622Z,0.93
2022-09-28T11:09:07.978Z,1.00
2022-09-28T11:11:43.101Z,0.77
2022-09-28T11:14:32.587Z,0.77
2022-09-28T11:17:28.158Z,1.23
2022-09-28T11:20:01.613Z,0.88
2022-09-28T11:22:41.770Z,1.92
2022-09-28T11:25:21.308Z,2.12
2022-09-28T11:27:52.069Z,1.47
2022-09-28T11:30:31.158Z,0.80
2022-09-28T11:33:07.219Z,0.70
2022-09-28T11:36:00.257Z,0.95
2022-09-28T11:38:41.057Z,1.33
2022-09-28T11:41:30.424Z,1.23
2022-09-28T11:44:04.200Z,1.73
2022-09-28T11:47:02.294Z,0.65
2022-09-28T11:49:49.362Z,1.20
2022-09-28T11:52:28.220Z,2.15
2022-09-28T11:55:13.480Z,1.00
2022-09-28T11:57:45.194Z,1.33
2022-09-28T12:00:20.784Z,1.52
2022-09-28T12:02:55.988Z,2.22
2022-09-28T12:05:30.403Z,1.30
2022-09-28T12:08:06.832Z,1.00
2022-09-28T12:10:48.685Z,1.95
2022-09-28T12:13:22.603Z,1.48
2022-09-28T12:21:56.565Z,2.70
2022-09-28T12:24:37.522Z,3.30
2022-09-28T12:27:11.601Z,0.70
2022-09-28T12:29:52.720Z,0.90
2022-09-28T12:32:38.614Z,1.58
2022-09-28T12:35:16.138Z,3.80
2022-09-28T12:37:56.914Z,1.50
2022-09-28T12:40:58.679Z,1.40
2022-09-28T12:43:48.201Z,2.15
2022-09-28T12:46:31.175Z,1.52
2022-09-28T12:52:39.351Z,2.22
2022-09-28T12:55:30.777Z,1.30
2022-09-28T12:58:06.759Z,0.93
2022-09-28T13:01:00.445Z,1.30
2022-09-28T13:03:46.535Z,1.90
2022-09-28T13:06:35.014Z,1.00
2022-09-28T13:09:17.324Z,0.90
2022-09-28T13:12:24.838Z,1.00
2022-09-28T13:15:29.440Z,1.10
2022-09-28T13:18:23.101Z,0.90
2022-09-28T13:20:53.387Z,0.85
2022-09-28T13:23:25.641Z,1.75
2022-09-28T13:26:26.311Z,2.35
2022-09-28T13:29:00.488Z,1.55
2022-09-28T13:31:34.953Z,1.47
2022-09-28T13:34:06.222Z,0.88
2022-09-28T13:36:36.915Z,1.75
2022-09-28T13:39:24.418Z,1.48
2022-09-28T13:41:54.599Z,1.10
2022-09-28T13:44:44.531Z,1.60
2022-09-28T13:47:50.640Z,1.23
2022-09-28T13:50:26.958Z,1.77
2022-09-28T13:52:57.250Z,2.00
2022-09-28T13:55:33.736Z,1.60
2022-09-28T13:58:06.528Z,1.70
2022-09-28T14:00:45.574Z,1.33
2022-09-28T14:03:20.680Z,1.48
2022-09-28T14:06:11.514Z,1.92
2022-09-28T14:09:15.917Z,1.35
2022-09-28T14:11:58.089Z,1.53
2022-09-28T14:14:47.276Z,2.85
2022-09-28T14:17:23.638Z,1.50
2022-09-28T14:20:04.613Z,1.10
2022-09-28T14:22:44.469Z,1.52
2022-09-28T14:25:45.323Z,1.20
2022-09-28T14:28:41.143Z,1.42
2022-09-28T14:31:17.342Z,2.95
2022-09-28T14:33:56.889Z,2.25
2022-09-28T14:37:07.688Z,3.10
2022-09-28T14:39:57.129Z,1.83
2022-09-28T14:42:25.749Z,1.15
2022-09-28T14:45:06.324Z,1.73
2022-09-28T14:47:43.283Z,1.70
2022-09-28T14:50:28.339Z,1.65
2022-09-28T14:53:04.363Z,1.57
2022-09-28T14:55:39.067Z,1.42
2022-09-28T14:58:17.343Z,1.55
2022-09-28T15:00:46.937Z,3.20
2022-09-28T15:03:15.415Z,1.20
2022-09-28T15:05:47.121Z,1.97
2022-09-28T15:08:19.135Z,1.40
2022-09-28T15:10:49.368Z,1.45
2022-09-28T15:13:27.777Z,1.40
2022-09-28T15:16:03.837Z,3.15
2022-09-28T15:18:58.574Z,3.57
2022-09-28T15:21:34.487Z,1.48
2022-09-28T15:24:02.279Z,2.05
2022-09-28T15:26:32.988Z,2.65
2022-09-28T15:29:04.088Z,1.83
2022-09-28T15:31:35.868Z,1.23
2022-09-28T15:34:22.198Z,2.00
2022-09-28T15:36:50.025Z,1.73
2022-09-28T15:39:48.216Z,2.25
2022-09-28T15:42:17.384Z,2.28
2022-09-28T15:45:13.801Z,1.87
2022-09-28T15:47:43.697Z,1.70
2022-09-28T15:50:22.134Z,2.35
2022-09-28T15:52:56.594Z,4.75
2022-09-28T15:55:42.096Z,2.50
2022-09-28T15:58:13.337Z,2.87
2022-09-28T16:00:41.582Z,2.00
2022-09-28T16:03:09.379Z,2.22
2022-09-28T16:05:46.737Z,2.53
2022-09-28T16:08:26.250Z,3.95
2022-09-28T16:11:10.960Z,2.50
2022-09-28T16:14:06.301Z,2.12
2022-09-28T16:16:41.165Z,3.05
2022-09-28T16:19:26.066Z,2.22
2022-09-28T16:21:56.465Z,2.20
2022-09-28T16:24:31.692Z,2.37
2022-09-28T16:27:27.621Z,3.80
2022-09-28T16:30:16.776Z,2.70
2022-09-28T16:32:57.790Z,3.62
2022-09-28T16:35:32.760Z,2.62
2022-09-28T16:38:05.638Z,2.97
2022-09-28T16:40:33.984Z,4.30
2022-09-28T16:43:05.721Z,3.70
2022-09-28T16:45:35.302Z,2.55
2022-09-28T16:48:03.094Z,3.95
2022-09-28T16:50:30.513Z,4.40
2022-09-28T16:53:21.552Z,2.15
2022-09-28T16:55:49.888Z,4.18
2022-09-28T16:58:18.625Z,3.30
2022-09-28T17:00:46.108Z,2.70
2022-09-28T17:03:19.002Z,2.47
2022-09-28T17:05:48.104Z,2.85
2022-09-28T17:08:18.860Z,3.95
2022-09-28T17:11:23.377Z,2.35
2022-09-28T17:13:50.006Z,3.83
2022-09-28T17:16:28.209Z,2.77
2022-09-28T17:19:24.167Z,2.85
2022-09-28T17:21:52.899Z,1.85
2022-09-28T17:24:20.950Z,3.25
2022-09-28T17:26:51.131Z,2.45
2022-09-28T17:29:19.344Z,2.67
2022-09-28T17:31:47.808Z,4.03
2022-09-28T17:34:16.362Z,2.53
2022-09-28T17:36:45.198Z,2.72
2022-09-28T17:39:15.362Z,2.00
2022-09-28T17:41:42.980Z,2.70
2022-09-28T17:44:10.864Z,2.12
2022-09-28T17:46:45.939Z,3.10
2022-09-28T17:49:13.572Z,8.27
2022-09-28T17:51:41.440Z,3.08
2022-09-28T17:54:08.887Z,3.17
2022-09-28T17:56:37.429Z,1.90
2022-09-28T17:59:12.712Z,2.75
2022-09-28T18:01:40.763Z,4.22
2022-09-28T18:04:19.146Z,3.97
2022-09-28T18:06:51.948Z,6.27
2022-09-28T18:09:25.215Z,5.87
2022-09-28T18:12:00.575Z,4.12
2022-09-28T18:14:28.663Z,2.92
2022-09-28T18:16:56.635Z,2.95
2022-09-28T18:19:27.457Z,3.47
2022-09-28T18:21:59.061Z,3.62
2022-09-28T18:24:26.879Z,3.10
2022-09-28T18:26:54.427Z,4.72
2022-09-28T18:29:22.259Z,4.82
2022-09-28T18:31:50.086Z,2.83
2022-09-28T18:34:17.890Z,3.65
2022-09-28T18:36:48.424Z,3.35
2022-09-28T18:39:15.978Z,4.45
2022-09-28T18:41:43.464Z,4.75
2022-09-28T18:44:11.251Z,4.57
2022-09-28T18:46:39.404Z,3.80
2022-09-28T18:49:07.222Z,3.83
2022-09-28T18:51:34.998Z,5.97
2022-09-28T18:54:07.204Z,4.30
2022-09-28T18:56:37.408Z,4.90
2022-09-28T18:59:12.177Z,7.15
2022-09-28T19:01:41.997Z,4.62
2022-09-28T19:04:11.134Z,4.82
2022-09-28T19:06:40.816Z,3.78
2022-09-28T19:09:09.430Z,5.13
2022-09-28T19:11:37.037Z,5.32
2022-09-28T19:14:04.508Z,6.72
2022-09-28T19:16:34.113Z,4.53
2022-09-28T19:19:02.818Z,4.10
2022-09-28T19:21:30.777Z,4.67
2022-09-28T19:24:03.413Z,3.62
2022-09-28T19:26:33.084Z,4.12
2022-09-28T19:29:02.162Z,3.80
2022-09-28T19:31:30.897Z,6.12
2022-09-28T19:33:58.810Z,5.70
2022-09-28T19:36:28.701Z,3.87
2022-09-28T19:39:02.223Z,4.68
2022-09-28T19:41:43.339Z,5.15
2022-09-28T19:44:15.447Z,4.57
2022-09-28T19:46:43.413Z,3.53
2022-09-28T19:49:14.026Z,3.40
2022-09-28T19:51:56.535Z,4.03
2022-09-28T19:54:36.343Z,8.18
2022-09-28T19:57:07.856Z,3.95
2022-09-28T19:59:37.176Z,4.30
2022-09-28T20:02:07.032Z,5.80
2022-09-28T20:04:34.981Z,5.72
2022-09-28T20:07:03.247Z,6.40
2022-09-28T20:09:31.917Z,6.22
2022-09-28T20:11:59.774Z,5.13
2022-09-28T20:14:32.897Z,4.80
2022-09-28T20:17:04.204Z,5.25
2022-09-28T20:19:31.623Z,5.93
2022-09-28T20:22:03.234Z,5.87
2022-09-28T20:24:32.051Z,5.17
2022-09-28T20:26:59.946Z,4.87
2022-09-28T20:29:33.806Z,6.57
2022-09-28T20:32:04.005Z,8.15
2022-09-28T20:34:34.046Z,7.22
2022-09-28T20:37:01.876Z,5.40
2022-09-28T20:39:29.618Z,5.87
2022-09-28T20:41:57.469Z,5.03
2022-09-28T20:44:25.184Z,4.78
2022-09-28T20:46:52.720Z,5.37
2022-09-28T20:49:20.349Z,5.07
2022-09-28T20:51:48.142Z,4.87
2022-09-28T20:54:15.612Z,6.28
2022-09-28T20:56:43.028Z,9.45
2022-09-28T20:59:12.082Z,7.85
2022-09-28T21:01:40.849Z,6.80
2022-09-28T21:04:09.941Z,7.25
2022-09-28T21:06:39.712Z,6.65
2022-09-28T21:09:08.834Z,4.87
2022-09-28T21:11:36.817Z,5.47
2022-09-28T21:14:06.587Z,5.33
2022-09-28T21:16:35.396Z,6.30
2022-09-28T21:19:03.776Z,6.95
2022-09-28T21:21:32.009Z,6.40
2022-09-28T21:23:59.578Z,6.40
2022-09-28T21:26:29.512Z,7.30
2022-09-28T21:28:59.961Z,6.43
2022-09-28T21:31:30.584Z,4.55
2022-09-28T21:33:58.847Z,7.40
2022-09-28T21:36:26.385Z,5.93
2022-09-28T21:38:56.105Z,6.57
2022-09-28T21:41:25.231Z,7.28
2022-09-28T21:43:52.689Z,8.73
2022-09-28T21:46:20.287Z,6.80
2022-09-28T21:48:54.247Z,7.22
2022-09-28T21:51:21.893Z,9.60
2022-09-28T21:53:49.716Z,7.03
2022-09-28T21:56:17.573Z,8.30
2022-09-28T21:58:45.007Z,10.40
2022-09-28T22:01:19.599Z,5.53
2022-09-28T22:03:50.585Z,7.57
2022-09-28T22:06:20.454Z,6.47
2022-09-28T22:08:49.372Z,6.15
2022-09-28T22:11:22.129Z,7.57
2022-09-28T22:13:52.802Z,7.40
2022-09-28T22:16:22.993Z,7.80
2022-09-28T22:18:50.995Z,7.90
2022-09-28T22:21:39.070Z,6.37
2022-09-28T22:24:07.690Z,6.40
2022-09-28T22:26:37.238Z,5.18
2022-09-28T22:29:07.451Z,7.33
2022-09-28T22:31:38.381Z,9.15
2022-09-28T22:34:07.288Z,6.50
2022-09-28T22:36:35.557Z,7.25
2022-09-28T22:39:03.123Z,7.57
2022-09-28T22:41:31.814Z,8.77
2022-09-28T22:43:59.840Z,9.15
2022-09-28T22:46:29.138Z,6.82
2022-09-28T22:48:58.792Z,8.30
2022-09-28T22:51:29.550Z,9.88
2022-09-28T22:53:58.007Z,7.67
2022-09-28T22:56:25.817Z,7.72
2022-09-28T22:58:53.372Z,9.82
2022-09-28T23:01:23.802Z,7.03
2022-09-28T23:03:52.754Z,8.18
2022-09-28T23:06:23.267Z,8.60
2022-09-28T23:08:51.828Z,8.23
2022-09-28T23:11:19.992Z,8.32
2022-09-28T23:13:51.630Z,5.97
2022-09-28T23:16:20.085Z,6.55
2022-09-28T23:18:49.321Z,8.83
2022-09-28T23:21:20.247Z,8.20
2022-09-28T23:23:55.741Z,8.30
2022-09-28T23:26:26.227Z,8.05
2022-09-28T23:28:54.672Z,8.55
2022-09-28T23:31:24.544Z,6.87
2022-09-28T23:33:56.385Z,8.77
2022-09-28T23:36:24.360Z,9.98
2022-09-28T23:38:51.790Z,9.80
2022-09-28T23:41:19.397Z,9.57
2022-09-28T23:43:47.245Z,8.53
2022-09-28T23:46:19.776Z,11.57
2022-09-28T23:48:49.618Z,8.60
2022-09-28T23:51:17.363Z,9.82
2022-09-28T23:53:45.358Z,5.97
2022-09-28T23:56:14.567Z,10.50
2022-09-28T23:58:42.885Z,7.05
